createdAt,value
2019-01-16T16:31:42.881Z,17.4
2019-01-16T16:32:44.196Z,17.5
2019-01-16T16:33:45.651Z,17.6
2019-01-16T16:34:46.968Z,17.6
2019-01-16T16:35:48.610Z,17.6
2019-01-16T16:36:49.986Z,17.6
2019-01-16T16:37:51.669Z,17.7
2019-01-16T16:38:52.997Z,17.7
2019-01-16T16:39:54.299Z,17.7
2019-01-16T16:40:55.782Z,17.7
2019-01-16T16:41:59.380Z,17.8
2019-01-16T16:43:00.700Z,17.8
2019-01-16T16:44:02.235Z,17.8
2019-01-16T16:45:06.367Z,17.7
2019-01-16T16:46:07.694Z,17.7
2019-01-16T16:47:11.298Z,17.7
2019-01-16T16:48:12.618Z,17.8
2019-01-16T16:49:13.991Z,17.8
2019-01-16T16:50:17.761Z,17.8
2019-01-16T16:51:19.086Z,17.9
2019-01-16T16:52:25.868Z,17.8
2019-01-16T16:53:27.353Z,17.7
2019-01-16T16:57:40.973Z,17.8
2019-01-16T16:58:42.335Z,17.8
2019-01-16T16:59:43.647Z,17.8
2019-01-16T17:00:44.977Z,17.8
2019-01-16T17:01:46.654Z,17.8
2019-01-16T17:02:47.992Z,17.8
2019-01-16T17:03:49.325Z,17.7
2019-01-16T17:04:50.642Z,17.7
2019-01-16T17:05:52.157Z,17.7
2019-01-16T17:06:53.624Z,17.7
2019-01-16T17:07:56.368Z,17.7
2019-01-16T17:08:57.695Z,17.7
2019-01-16T17:09:58.981Z,17.8
2019-01-16T17:11:00.310Z,17.8
2019-01-16T17:12:01.996Z,17.8
2019-01-16T17:13:03.580Z,17.8
2019-01-16T17:14:05.211Z,17.8
2019-01-16T17:15:11.625Z,17.9
2019-01-16T17:16:13.161Z,17.9
2019-01-16T17:17:14.510Z,17.9
2019-01-16T17:18:19.618Z,17.9
2019-01-16T17:19:22.433Z,17.9
2019-01-16T17:20:23.785Z,17.8
2019-01-16T17:21:26.099Z,17.8
2019-01-16T17:22:32.312Z,17.8
2019-01-16T17:23:36.748Z,18
2019-01-16T17:24:41.249Z,18
2019-01-16T17:25:42.571Z,18
2019-01-16T17:26:43.865Z,18
2019-01-16T17:27:45.288Z,18
2019-01-16T17:28:46.635Z,17.9
2019-01-16T17:29:47.918Z,17.9
2019-01-16T17:30:51.509Z,17.9
2019-01-16T17:31:52.818Z,17.9
2019-01-16T17:32:54.309Z,17.9
2019-01-16T17:33:55.643Z,17.8
2019-01-16T17:34:56.959Z,17.9
2019-01-16T17:35:58.435Z,17.9
2019-01-16T17:36:59.864Z,17.8
2019-01-16T17:38:01.168Z,17.8
2019-01-16T17:39:04.094Z,17.9
2019-01-16T17:40:05.445Z,17.9
2019-01-16T17:41:06.746Z,17.8
2019-01-16T17:42:08.027Z,17.9
2019-01-16T17:43:09.423Z,17.9
2019-01-16T17:44:10.932Z,17.9
2019-01-16T17:45:12.234Z,17.9
2019-01-16T17:46:14.790Z,17.9
2019-01-16T17:47:16.523Z,17.9
2019-01-16T17:48:17.827Z,18
2019-01-16T17:49:19.201Z,18
2019-01-16T17:50:20.822Z,18
2019-01-16T17:51:22.542Z,17.9
2019-01-16T17:52:24.044Z,18
2019-01-16T17:53:25.381Z,17.9
2019-01-16T17:54:27.637Z,18
2019-01-16T17:55:33.435Z,17.9
2019-01-16T17:56:35.915Z,17.9
2019-01-16T17:57:37.256Z,17.8
2019-01-16T17:58:38.642Z,17.9
2019-01-16T17:59:40.231Z,17.9
2019-01-16T18:00:41.560Z,17.8
2019-01-16T18:01:42.858Z,17.9
2019-01-16T18:02:44.212Z,17.9
2019-01-16T18:03:48.589Z,17.9
2019-01-16T18:09:44.314Z,17.9
2019-01-16T18:10:45.624Z,17.8
2019-01-16T18:11:49.289Z,17.9
2019-01-16T18:12:50.570Z,17.9
2019-01-16T18:13:52.866Z,17.8
2019-01-16T18:14:54.201Z,17.8
2019-01-16T18:15:58.585Z,17.8
2019-01-16T18:16:59.896Z,17.8
2019-01-16T18:18:03.382Z,17.8
2019-01-16T18:19:04.671Z,17.8
2019-01-16T18:20:05.951Z,17.8
2019-01-16T18:21:07.289Z,17.7
2019-01-16T18:22:08.642Z,17.7
2019-01-16T18:23:09.926Z,17.8
2019-01-16T18:24:13.498Z,17.8
2019-01-16T18:25:17.284Z,17.7
2019-01-16T18:26:18.678Z,17.7
2019-01-16T18:27:20.171Z,17.7
2019-01-16T18:28:23.905Z,17.7
2019-01-16T18:29:25.210Z,17.7
2019-01-16T18:30:26.666Z,17.7
2019-01-16T18:31:27.994Z,17.6
2019-01-16T18:32:29.288Z,17.5
2019-01-16T18:33:31.857Z,17.5
2019-01-16T18:34:33.187Z,17.5
2019-01-16T18:35:34.478Z,17.6
2019-01-16T18:36:35.817Z,17.6
2019-01-16T18:37:40.414Z,17.5
2019-01-16T18:38:41.712Z,17.5
2019-01-16T18:39:43.252Z,17.5
2019-01-16T18:40:45.882Z,17.5
2019-01-16T18:41:47.225Z,17.5
2019-01-16T18:42:48.533Z,17.5
2019-01-16T18:43:49.833Z,17.5
2019-01-16T18:44:51.410Z,17.5
2019-01-16T18:45:53.229Z,17.4
2019-01-16T18:46:57.621Z,17.4
2019-01-16T18:48:01.262Z,17.3
2019-01-16T18:49:02.914Z,17.4
2019-01-16T18:50:04.300Z,17.4
2019-01-16T18:51:05.561Z,17.4
2019-01-16T18:52:09.175Z,17.4
2019-01-16T18:53:10.799Z,17.3
2019-01-16T18:54:12.122Z,17.3
2019-01-16T18:55:13.392Z,17.3
2019-01-16T18:56:14.684Z,17.4
2019-01-16T18:57:16.240Z,17.3
2019-01-16T18:58:19.605Z,17.3
2019-01-16T18:59:22.187Z,17.2
2019-01-16T19:00:23.503Z,17.3
2019-01-16T19:01:24.792Z,17.3
2019-01-16T19:02:26.332Z,17.2
2019-01-16T19:03:28.215Z,17.3
2019-01-16T19:04:31.460Z,17.3
2019-01-16T19:05:32.790Z,17.3
2019-01-16T19:06:34.333Z,17.2
2019-01-16T19:07:37.205Z,17.3
2019-01-16T19:08:38.512Z,17.3
2019-01-16T19:09:39.831Z,17.2
2019-01-16T19:10:41.618Z,17.3
2019-01-16T19:11:43.662Z,17.2
2019-01-16T19:12:45.005Z,17.3
2019-01-16T19:13:46.319Z,17.3
2019-01-16T19:14:47.596Z,17.3
2019-01-16T19:15:48.915Z,17.3
2019-01-16T19:16:50.230Z,17.2
2019-01-16T19:17:51.789Z,17.2
2019-01-16T19:18:55.723Z,17.2
2019-01-16T19:19:58.422Z,17.3
2019-01-16T19:21:00.191Z,17.3
2019-01-16T19:22:01.645Z,17.2
2019-01-16T19:23:03.005Z,17.2
2019-01-16T19:24:04.598Z,17.1
2019-01-16T19:25:07.098Z,17.2
2019-01-16T19:26:08.388Z,17.2
2019-01-16T19:27:10.728Z,17.2
2019-01-16T19:28:14.664Z,17.3
2019-01-16T19:29:15.969Z,17.3
2019-01-16T19:30:17.281Z,17.3
2019-01-16T19:31:18.610Z,17.3
2019-01-16T19:32:19.925Z,17.2
2019-01-16T19:33:21.293Z,17.3
2019-01-16T19:34:25.337Z,17.3
2019-01-16T19:35:30.683Z,17.2
2019-01-16T19:36:31.986Z,17.2
2019-01-16T19:37:33.524Z,17.2
2019-01-16T19:38:35.044Z,17.2
2019-01-16T19:39:39.296Z,17.2
2019-01-16T19:40:40.663Z,17.2
2019-01-16T19:41:49.399Z,17.2
2019-01-16T19:42:50.997Z,17.2
2019-01-16T19:43:54.351Z,17.1
2019-01-16T19:45:08.532Z,17.2
2019-01-16T19:46:09.848Z,17.2
2019-01-16T19:47:11.309Z,17.2
2019-01-16T19:48:12.619Z,17.3
2019-01-16T19:49:14.182Z,17.1
2019-01-16T19:50:15.517Z,17.2
2019-01-16T19:51:16.817Z,17.2
2019-01-16T19:52:19.346Z,17.3
2019-01-16T19:53:22.309Z,17.3
2019-01-16T19:54:39.571Z,17.3
2019-01-16T19:55:40.967Z,17.4
2019-01-16T19:56:45.304Z,17.4
2019-01-16T19:57:46.642Z,17.4
2019-01-16T19:58:47.922Z,17.4
2019-01-16T19:59:49.225Z,17.4
2019-01-16T20:00:50.533Z,17.4
2019-01-16T20:01:54.293Z,17.3
2019-01-16T20:02:55.637Z,17.3
2019-01-16T20:03:56.921Z,17.4
2019-01-16T20:04:58.282Z,17.4
2019-01-16T20:05:59.580Z,17.4
2019-01-16T20:07:01.507Z,17.4
2019-01-16T20:08:03.497Z,17.3
2019-01-16T20:09:05.075Z,17.3
2019-01-16T20:10:07.473Z,17.3
2019-01-16T20:11:11.690Z,17.3
2019-01-16T20:12:14.928Z,17.3
2019-01-16T20:13:16.529Z,17.3
2019-01-16T20:14:18.317Z,17.3
2019-01-16T20:15:19.653Z,17.4
2019-01-16T20:16:21.283Z,17.4
2019-01-16T20:17:22.584Z,17.4
2019-01-16T20:18:23.954Z,17.3
2019-01-16T20:19:25.267Z,17.3
2019-01-16T20:20:26.643Z,17.3
2019-01-16T20:21:27.960Z,17.3
2019-01-16T20:22:31.112Z,17.3
2019-01-16T20:23:34.011Z,17.2
2019-01-16T20:24:36.904Z,17.2
2019-01-16T20:25:38.222Z,17.2
2019-01-16T20:26:39.831Z,17.2
2019-01-16T20:27:41.440Z,17.2
2019-01-16T20:28:45.632Z,17.2
2019-01-16T20:29:46.979Z,17.1
2019-01-16T20:30:48.334Z,17.1
2019-01-16T20:31:55.490Z,17.1
2019-01-16T20:32:59.196Z,17.1
2019-01-16T20:34:02.712Z,17.2
2019-01-16T20:35:09.820Z,17.2
2019-01-16T20:36:11.612Z,17.2
2019-01-16T20:37:12.920Z,17.2
2019-01-16T20:38:16.684Z,17.2
2019-01-16T20:39:18.004Z,17.2
2019-01-16T20:40:19.416Z,17.2
2019-01-16T20:41:20.797Z,17.2
2019-01-16T20:42:22.132Z,17.1
2019-01-16T20:43:26.290Z,17.1
2019-01-16T20:44:27.657Z,17.2
2019-01-16T20:45:29.005Z,17.2
2019-01-16T20:46:33.306Z,17.1
2019-01-16T20:47:35.091Z,17.1
2019-01-16T20:48:36.805Z,17.1
2019-01-16T20:49:38.136Z,17.1
2019-01-16T20:50:39.645Z,17.1
2019-01-16T20:51:41.059Z,17.2
2019-01-16T20:52:42.651Z,17.2
2019-01-16T20:53:43.937Z,17.2
2019-01-16T20:54:45.536Z,17.2
2019-01-16T20:55:47.258Z,17.2
2019-01-16T20:56:48.850Z,17.2
2019-01-16T20:57:50.173Z,17.2
2019-01-16T20:58:51.464Z,17.2
2019-01-16T20:59:52.809Z,17.2
2019-01-16T21:00:56.903Z,17.2
2019-01-16T21:01:59.457Z,17.2
2019-01-16T21:03:00.802Z,17.2
2019-01-16T21:04:08.740Z,17.2
2019-01-16T21:05:17.317Z,17.2
2019-01-16T21:06:25.303Z,17.3
2019-01-16T21:07:32.858Z,17.2
2019-01-16T21:08:34.168Z,17.2
2019-01-16T21:09:35.461Z,17.2
2019-01-16T21:10:38.882Z,17.2
2019-01-16T21:11:40.402Z,17.3
2019-01-16T21:12:41.745Z,17.2
2019-01-16T21:13:43.575Z,17.3
2019-01-16T21:14:44.876Z,17.4
2019-01-16T21:15:51.738Z,17.3
2019-01-16T21:16:53.218Z,17.3
2019-01-16T21:17:54.664Z,17.4
2019-01-16T21:18:59.258Z,17.3
2019-01-16T21:20:03.322Z,17.3
2019-01-16T21:21:04.704Z,17.2
2019-01-16T21:22:10.468Z,17.2
2019-01-16T21:23:11.908Z,17.3
2019-01-16T21:24:13.211Z,17.2
2019-01-16T21:25:16.216Z,17.2
2019-01-16T21:26:17.734Z,17.3
2019-01-16T21:27:19.292Z,17.4
2019-01-16T21:28:22.648Z,17.4
2019-01-16T21:29:23.996Z,17.4
2019-01-16T21:30:25.333Z,17.3
2019-01-16T21:31:32.742Z,17.3
2019-01-16T21:32:34.039Z,17.3
2019-01-16T21:33:38.405Z,17.3
2019-01-16T21:34:39.689Z,17.3
2019-01-16T21:35:41.373Z,17.3
2019-01-16T21:36:42.944Z,17.2
2019-01-16T21:37:46.797Z,17.2
2019-01-16T21:38:50.561Z,17.3
2019-01-16T21:39:51.871Z,17.2
2019-01-16T21:40:55.073Z,17.2
2019-01-16T21:41:58.296Z,17.1
2019-01-16T21:43:03.043Z,17.2
2019-01-16T21:44:10.597Z,17.1
2019-01-16T21:45:14.122Z,17.1
2019-01-16T21:46:15.422Z,17.1
2019-01-16T21:47:17.022Z,17.1
2019-01-16T21:48:25.880Z,17.1
2019-01-16T21:49:27.548Z,17.1
2019-01-16T21:50:29.352Z,17.1
2019-01-16T21:51:32.455Z,17.1
2019-01-16T21:52:36.957Z,17.1
2019-01-16T21:53:38.285Z,17.1
2019-01-16T21:54:41.618Z,17
2019-01-16T21:55:51.705Z,17
2019-01-16T21:56:53.018Z,17.1
2019-01-16T21:57:54.657Z,17.1
2019-01-16T21:58:59.373Z,17.1
2019-01-16T22:00:00.711Z,17.1
2019-01-16T22:01:09.005Z,17.1
2019-01-16T22:02:12.714Z,17.1
2019-01-16T22:03:14.734Z,17.1
2019-01-16T22:04:16.301Z,17
2019-01-16T22:05:20.147Z,17
2019-01-16T22:06:32.892Z,17
2019-01-16T22:07:36.426Z,17
2019-01-16T22:08:42.669Z,17.1
2019-01-16T22:10:53.231Z,17.1
2019-01-16T22:12:00.891Z,17.1
2019-01-16T22:13:02.145Z,17.1
2019-01-16T22:14:03.459Z,17
2019-01-16T22:15:08.478Z,17.1
2019-01-16T22:16:10.251Z,17
2019-01-16T22:17:20.551Z,17
2019-01-16T22:18:24.301Z,17.1
2019-01-16T22:19:25.912Z,17
2019-01-16T22:20:27.306Z,17
2019-01-16T22:21:28.567Z,17
2019-01-16T22:22:29.816Z,17
2019-01-16T22:23:36.557Z,17
2019-01-16T22:24:38.359Z,17
2019-01-16T22:25:39.906Z,17
2019-01-16T22:26:41.194Z,17
2019-01-16T22:27:42.461Z,17
2019-01-16T22:28:43.716Z,17
2019-01-16T22:29:44.984Z,17
2019-01-16T22:30:47.090Z,17
2019-01-16T22:31:50.304Z,17
2019-01-16T22:32:51.585Z,17
2019-01-16T22:33:52.864Z,16.9
2019-01-16T22:34:54.436Z,16.9
2019-01-16T22:36:00.145Z,16.9
2019-01-16T22:37:01.432Z,16.9
2019-01-16T22:38:02.942Z,16.9
2019-01-16T22:39:04.239Z,16.8
2019-01-16T22:40:05.634Z,16.8
2019-01-16T22:41:06.906Z,16.8
2019-01-16T22:42:10.691Z,16.8
2019-01-16T22:43:12.262Z,16.8
2019-01-16T22:44:13.510Z,16.8
2019-01-16T22:45:14.842Z,16.8
2019-01-16T22:46:16.239Z,16.8
2019-01-16T22:47:20.784Z,16.8
2019-01-16T22:48:22.125Z,16.8
2019-01-16T22:49:27.580Z,16.8
2019-01-16T22:50:28.855Z,16.8
2019-01-16T22:51:30.398Z,16.7
2019-01-16T22:52:31.806Z,16.8
2019-01-16T22:53:33.193Z,16.8
2019-01-16T22:54:39.241Z,16.8
2019-01-16T22:55:43.373Z,16.7
2019-01-16T22:56:44.601Z,16.7
2019-01-16T22:57:45.855Z,16.8
2019-01-16T22:58:47.109Z,16.8
2019-01-16T22:59:48.372Z,16.8
2019-01-16T23:00:49.650Z,16.8
2019-01-16T23:01:50.890Z,16.7
2019-01-16T23:02:52.440Z,16.7
2019-01-16T23:03:53.670Z,16.8
2019-01-16T23:04:57.000Z,16.7
2019-01-16T23:05:58.280Z,16.8
2019-01-16T23:06:59.542Z,16.8
2019-01-16T23:08:02.331Z,16.7
2019-01-16T23:09:03.599Z,16.8
2019-01-16T23:10:04.859Z,16.7
2019-01-16T23:11:06.118Z,16.5
2019-01-16T23:12:07.438Z,16
2019-01-16T23:13:08.711Z,15.4
2019-01-16T23:14:14.222Z,14.9
2019-01-16T23:15:15.467Z,14.6
2019-01-16T23:16:16.719Z,14.4
2019-01-16T23:17:17.983Z,14.2
2019-01-16T23:18:19.293Z,14.2
2019-01-16T23:19:20.563Z,14.1
2019-01-16T23:20:21.822Z,13.9
2019-01-16T23:21:25.263Z,13.8
2019-01-16T23:22:26.509Z,13.7
2019-01-16T23:23:27.796Z,13.7
2019-01-16T23:24:34.383Z,13.8
2019-01-16T23:25:37.340Z,13.6
2019-01-16T23:26:38.594Z,13.6
2019-01-16T23:27:40.155Z,13.4
2019-01-16T23:28:41.597Z,13.4
2019-01-16T23:29:50.062Z,13.3
2019-01-16T23:30:51.902Z,13.2
2019-01-16T23:31:53.139Z,13.3
2019-01-16T23:32:54.409Z,13.3
2019-01-16T23:33:55.743Z,13.2
2019-01-16T23:34:57.339Z,13.1
2019-01-16T23:35:58.629Z,13
2019-01-16T23:37:00.130Z,13
2019-01-16T23:38:01.540Z,13.1
2019-01-16T23:39:06.423Z,12.9
2019-01-16T23:40:07.682Z,12.8
2019-01-16T23:41:08.935Z,12.9
2019-01-16T23:42:10.203Z,12.8
2019-01-16T23:43:11.451Z,12.8
2019-01-16T23:44:12.728Z,12.7
2019-01-16T23:45:14.319Z,12.7
2019-01-16T23:46:15.795Z,12.6
2019-01-16T23:47:19.492Z,12.6
2019-01-16T23:48:20.743Z,12.6
2019-01-16T23:49:22.034Z,12.7
2019-01-16T23:50:23.305Z,12.7
2019-01-16T23:51:24.592Z,12.7
2019-01-16T23:52:25.840Z,12.6
2019-01-16T23:53:27.355Z,12.7
2019-01-16T23:54:28.635Z,12.5
2019-01-16T23:55:29.896Z,12.5
2019-01-16T23:56:31.131Z,12.5
2019-01-16T23:57:32.392Z,12.6
2019-01-16T23:58:33.640Z,12.6
2019-01-16T23:59:34.927Z,12.4
